createdAt,value
2023-05-08T00:01:26.410Z,48.84
2023-05-08T00:03:53.288Z,47.80
2023-05-08T00:06:20.300Z,49.31
2023-05-08T00:08:46.907Z,50.27
2023-05-08T00:11:13.789Z,50.26
2023-05-08T00:13:41.497Z,50.13
2023-05-08T00:16:13.075Z,50.21
2023-05-08T00:18:40.257Z,49.76
2023-05-08T00:21:07.224Z,49.33
2023-05-08T00:23:34.307Z,49.97
2023-05-08T00:26:01.011Z,49.75
2023-05-08T00:28:27.885Z,50.18
2023-05-08T00:30:54.638Z,49.90
2023-05-08T00:33:21.447Z,50.32
2023-05-08T00:35:48.157Z,49.96
2023-05-08T00:38:14.822Z,49.29
2023-05-08T00:40:41.621Z,50.09
2023-05-08T00:43:09.422Z,50.46
2023-05-08T00:45:37.886Z,50.20
2023-05-08T00:48:05.387Z,49.87
2023-05-08T00:50:32.841Z,49.02
2023-05-08T00:53:02.888Z,49.14
2023-05-08T00:55:30.915Z,49.62
2023-05-08T00:57:57.596Z,50.05
2023-05-08T01:00:24.935Z,50.34
2023-05-08T01:02:51.989Z,50.21
2023-05-08T01:05:18.946Z,50.29
2023-05-08T01:07:46.227Z,49.73
2023-05-08T01:10:13.186Z,50.46
2023-05-08T01:13:09.261Z,50.71
2023-05-08T01:15:46.974Z,50.99
2023-05-08T01:18:23.177Z,49.92
2023-05-08T01:21:13.545Z,50.21
2023-05-08T01:24:11.263Z,50.80
2023-05-08T01:26:38.109Z,50.71
2023-05-08T01:29:28.266Z,50.91
2023-05-08T01:32:23.641Z,50.03
2023-05-08T01:35:24.115Z,50.72
2023-05-08T01:38:10.559Z,50.19
2023-05-08T01:40:44.885Z,50.74
2023-05-08T01:43:23.202Z,51.22
2023-05-08T01:45:52.947Z,51.05
2023-05-08T01:48:33.067Z,51.39
2023-05-08T01:51:17.094Z,50.20
2023-05-08T01:53:47.705Z,50.63
2023-05-08T01:56:19.017Z,50.68
2023-05-08T01:58:47.906Z,50.99
2023-05-08T02:01:18.041Z,51.13
2023-05-08T02:03:46.123Z,51.61
2023-05-08T02:06:16.851Z,51.04
2023-05-08T02:08:46.367Z,50.85
2023-05-08T02:11:15.036Z,50.80
2023-05-08T02:13:44.652Z,51.31
2023-05-08T02:16:12.989Z,51.86
2023-05-08T02:18:46.924Z,50.68
2023-05-08T02:21:15.460Z,51.02
2023-05-08T02:23:44.669Z,51.89
2023-05-08T02:26:14.032Z,51.84
2023-05-08T02:28:41.909Z,51.44
2023-05-08T02:31:13.234Z,51.43
2023-05-08T02:33:42.027Z,52.67
2023-05-08T02:36:10.901Z,52.43
2023-05-08T02:38:39.846Z,52.92
2023-05-08T02:41:07.941Z,52.67
2023-05-08T02:43:35.698Z,51.83
2023-05-08T02:46:13.463Z,52.55
2023-05-08T02:49:03.557Z,52.51
2023-05-08T02:51:47.094Z,51.91
2023-05-08T02:54:25.164Z,51.54
2023-05-08T02:57:27.420Z,52.48
2023-05-08T03:00:05.135Z,52.55
2023-05-08T03:02:38.134Z,51.97
2023-05-08T03:05:30.608Z,52.68
2023-05-08T03:08:02.893Z,52.33
2023-05-08T03:10:33.577Z,52.26
2023-05-08T03:13:03.780Z,51.81
2023-05-08T03:15:41.895Z,52.09
2023-05-08T03:18:14.141Z,52.54
2023-05-08T03:20:45.613Z,51.97
2023-05-08T03:23:18.205Z,51.01
2023-05-08T03:25:44.982Z,51.83
2023-05-08T03:28:14.023Z,51.92
2023-05-08T03:30:41.881Z,52.67
2023-05-08T03:33:12.674Z,51.80
2023-05-08T03:35:39.973Z,51.88
2023-05-08T03:38:08.676Z,51.60
2023-05-08T03:40:38.952Z,52.32
2023-05-08T03:43:07.960Z,53.40
2023-05-08T03:45:37.024Z,53.48
2023-05-08T03:48:05.971Z,53.60
2023-05-08T03:50:36.891Z,52.54
2023-05-08T03:53:05.437Z,51.89
2023-05-08T03:55:32.926Z,52.95
2023-05-08T03:58:19.576Z,52.01
2023-05-08T04:01:11.910Z,52.53
2023-05-08T04:03:42.486Z,52.44
2023-05-08T04:06:22.925Z,52.74
2023-05-08T04:09:00.484Z,51.19
2023-05-08T04:12:18.653Z,51.13
2023-05-08T04:14:56.259Z,52.35
2023-05-08T04:17:42.131Z,52.68
2023-05-08T04:20:13.788Z,51.00
2023-05-08T04:22:42.427Z,52.25
2023-05-08T04:25:12.632Z,52.83
2023-05-08T04:27:39.730Z,53.33
2023-05-08T04:30:09.357Z,53.84
2023-05-08T04:32:40.265Z,54.06
2023-05-08T04:35:08.563Z,54.20
2023-05-08T04:37:35.491Z,54.14
2023-05-08T04:40:04.940Z,53.52
2023-05-08T04:42:36.486Z,53.77
2023-05-08T04:45:04.037Z,52.84
2023-05-08T04:47:31.436Z,53.34
2023-05-08T04:50:00.016Z,52.85
2023-05-08T04:52:29.324Z,52.89
2023-05-08T04:54:55.944Z,52.31
2023-05-08T04:57:22.671Z,52.60
2023-05-08T04:59:49.319Z,52.39
2023-05-08T05:02:16.372Z,51.08
2023-05-08T05:04:43.374Z,51.71
2023-05-08T05:07:10.682Z,51.54
2023-05-08T05:09:39.259Z,51.85
2023-05-08T05:12:07.079Z,51.03
2023-05-08T05:14:34.376Z,50.88
2023-05-08T05:17:01.403Z,50.56
2023-05-08T05:19:28.146Z,50.07
2023-05-08T05:21:55.352Z,49.06
2023-05-08T05:24:22.137Z,49.23
2023-05-08T05:26:49.043Z,49.83
2023-05-08T05:29:15.999Z,49.21
2023-05-08T05:31:43.171Z,49.24
2023-05-08T05:34:09.904Z,49.52
2023-05-08T05:36:36.907Z,50.17
2023-05-08T05:39:03.727Z,48.61
2023-05-08T05:41:31.210Z,49.91
2023-05-08T05:43:58.250Z,48.55
2023-05-08T05:46:32.424Z,48.90
2023-05-08T05:49:01.420Z,48.98
2023-05-08T05:51:29.286Z,48.44
2023-05-08T05:53:57.155Z,47.73
2023-05-08T05:56:24.890Z,48.28
2023-05-08T05:58:51.757Z,49.52
2023-05-08T06:01:18.410Z,49.99
2023-05-08T06:03:45.265Z,50.46
2023-05-08T06:06:12.536Z,49.53
2023-05-08T06:08:39.464Z,48.53
2023-05-08T06:11:06.128Z,49.76
2023-05-08T06:13:33.150Z,49.02
2023-05-08T06:16:00.510Z,49.70
2023-05-08T06:18:27.245Z,49.66
2023-05-08T06:20:57.950Z,49.71
2023-05-08T06:23:24.933Z,49.50
2023-05-08T06:25:51.618Z,49.35
2023-05-08T06:28:18.876Z,49.97
2023-05-08T06:30:45.545Z,49.20
2023-05-08T06:33:12.498Z,48.70
2023-05-08T06:35:39.235Z,49.20
2023-05-08T06:38:06.326Z,49.78
2023-05-08T06:40:32.904Z,48.00
2023-05-08T06:42:59.617Z,49.24
2023-05-08T06:45:26.200Z,48.44
2023-05-08T06:47:53.014Z,48.43
2023-05-08T06:50:19.838Z,48.58
2023-05-08T06:52:46.484Z,45.60
2023-05-08T06:55:13.332Z,47.86
2023-05-08T06:57:40.111Z,47.82
2023-05-08T07:00:07.530Z,48.21
2023-05-08T07:02:34.346Z,48.12
2023-05-08T07:05:01.242Z,48.07
2023-05-08T07:07:28.075Z,47.69
2023-05-08T07:09:54.775Z,45.83
2023-05-08T07:12:21.474Z,47.23
2023-05-08T07:14:48.089Z,47.74
2023-05-08T07:17:14.846Z,47.06
2023-05-08T07:19:41.465Z,47.20
2023-05-08T07:22:08.219Z,46.25
2023-05-08T07:24:34.956Z,46.15
2023-05-08T07:27:01.871Z,45.58
2023-05-08T07:29:28.582Z,44.97
2023-05-08T07:31:55.605Z,45.93
2023-05-08T07:34:22.326Z,46.40
2023-05-08T07:36:49.046Z,45.97
2023-05-08T07:39:15.705Z,46.18
2023-05-08T07:41:42.473Z,45.59
2023-05-08T07:44:09.532Z,46.21
2023-05-08T07:46:37.128Z,46.96
2023-05-08T07:49:03.900Z,45.54
2023-05-08T07:51:30.593Z,46.36
2023-05-08T07:53:57.295Z,45.45
2023-05-08T07:56:24.329Z,46.16
2023-05-08T07:58:50.958Z,46.68
2023-05-08T08:01:18.282Z,46.87
2023-05-08T08:03:46.468Z,46.78
2023-05-08T08:06:13.571Z,46.98
2023-05-08T08:08:40.515Z,47.28
2023-05-08T08:11:07.578Z,48.34
2023-05-08T08:13:34.336Z,48.18
2023-05-08T08:16:03.936Z,47.07
2023-05-08T08:18:33.708Z,46.84
2023-05-08T08:21:00.430Z,46.74
2023-05-08T08:23:27.382Z,46.53
2023-05-08T08:25:54.394Z,46.37
2023-05-08T08:28:21.225Z,46.24
2023-05-08T08:30:48.238Z,47.27
2023-05-08T08:33:16.316Z,46.07
2023-05-08T08:35:44.999Z,46.94
2023-05-08T08:38:11.674Z,47.07
2023-05-08T08:40:42.674Z,47.04
2023-05-08T08:43:10.046Z,46.68
2023-05-08T08:45:37.620Z,47.02
2023-05-08T08:48:05.030Z,47.01
2023-05-08T08:50:32.972Z,46.73
2023-05-08T08:53:25.823Z,47.19
2023-05-08T08:55:55.933Z,47.33
2023-05-08T08:58:38.131Z,46.67
2023-05-08T09:01:08.120Z,47.05
2023-05-08T09:03:35.155Z,45.46
2023-05-08T09:06:02.738Z,45.43
2023-05-08T09:08:29.934Z,45.18
2023-05-08T09:10:56.612Z,46.54
2023-05-08T09:13:23.358Z,45.34
2023-05-08T09:15:50.755Z,45.10
2023-05-08T09:18:17.655Z,45.47
2023-05-08T09:20:44.765Z,45.07
2023-05-08T09:23:11.590Z,45.80
2023-05-08T09:25:45.891Z,43.98
2023-05-08T09:28:17.207Z,45.80
2023-05-08T09:30:58.053Z,45.78
2023-05-08T09:33:29.715Z,46.85
2023-05-08T09:35:57.062Z,45.80
2023-05-08T09:38:41.928Z,46.07
2023-05-08T09:41:16.476Z,45.55
2023-05-08T09:43:44.915Z,45.64
2023-05-08T09:46:24.667Z,45.79
2023-05-08T09:48:56.764Z,45.82
2023-05-08T09:51:24.798Z,44.85
2023-05-08T09:53:53.284Z,45.04
2023-05-08T09:56:37.384Z,46.17
2023-05-08T09:59:06.333Z,46.56
2023-05-08T10:01:34.254Z,45.83
2023-05-08T10:04:01.919Z,45.77
2023-05-08T10:06:29.428Z,46.85
2023-05-08T10:09:22.430Z,45.46
2023-05-08T10:11:54.547Z,45.83
2023-05-08T10:14:22.886Z,46.56
2023-05-08T10:16:54.318Z,46.26
2023-05-08T10:19:23.027Z,46.50
2023-05-08T10:21:54.143Z,46.37
2023-05-08T10:24:24.127Z,46.39
2023-05-08T10:27:21.017Z,45.96
2023-05-08T10:29:56.273Z,46.33
2023-05-08T10:32:24.557Z,45.35
2023-05-08T10:35:00.285Z,45.56
2023-05-08T10:37:30.026Z,44.80
2023-05-08T10:39:58.020Z,43.27
2023-05-08T10:42:26.286Z,44.43
2023-05-08T10:44:53.533Z,44.69
2023-05-08T10:48:03.561Z,44.21
2023-05-08T10:50:57.071Z,43.03
2023-05-08T10:53:36.198Z,43.44
2023-05-08T10:56:03.554Z,43.56
2023-05-08T10:58:31.093Z,43.18
2023-05-08T11:00:59.504Z,41.96
2023-05-08T11:03:37.921Z,42.39
2023-05-08T11:06:04.881Z,41.92
2023-05-08T11:08:32.623Z,41.44
2023-05-08T11:11:02.117Z,40.58
2023-05-08T11:13:30.165Z,39.78
2023-05-08T11:15:56.902Z,40.16
2023-05-08T11:18:26.331Z,39.92
2023-05-08T11:20:59.473Z,40.19
2023-05-08T11:23:31.201Z,39.68
2023-05-08T11:26:04.137Z,40.39
2023-05-08T11:28:38.765Z,39.04
2023-05-08T11:31:09.280Z,38.37
2023-05-08T11:33:41.186Z,38.92
2023-05-08T11:36:07.786Z,40.04
2023-05-08T11:38:36.447Z,39.91
2023-05-08T11:41:09.952Z,38.24
2023-05-08T11:43:59.071Z,38.26
2023-05-08T11:46:33.926Z,38.41
2023-05-08T11:49:01.379Z,38.82
2023-05-08T11:51:33.906Z,36.80
2023-05-08T11:54:01.124Z,37.80
2023-05-08T11:56:27.917Z,38.18
2023-05-08T11:59:11.267Z,39.50
2023-05-08T12:01:37.981Z,38.03
2023-05-08T12:06:35.319Z,36.68
2023-05-08T12:09:04.860Z,36.51
2023-05-08T12:11:32.169Z,35.69
2023-05-08T12:13:58.838Z,34.60
2023-05-08T12:16:26.212Z,32.71
2023-05-08T12:18:56.058Z,31.95
2023-05-08T12:21:22.848Z,32.83
2023-05-08T12:23:49.855Z,33.23
2023-05-08T12:26:17.267Z,31.61
2023-05-08T12:28:48.228Z,34.59
2023-05-08T12:31:15.129Z,33.05
2023-05-08T12:33:42.502Z,31.11
2023-05-08T12:36:09.233Z,32.34
2023-05-08T12:38:35.901Z,31.76
2023-05-08T12:41:04.483Z,32.31
2023-05-08T12:43:32.102Z,29.37
2023-05-08T12:45:58.871Z,29.40
2023-05-08T12:48:26.701Z,29.40
2023-05-08T12:50:53.438Z,30.05
2023-05-08T12:53:23.110Z,29.97
2023-05-08T12:55:58.063Z,31.59
2023-05-08T12:58:27.187Z,31.70
2023-05-08T13:01:03.320Z,33.54
2023-05-08T13:03:30.986Z,35.34
2023-05-08T13:05:58.738Z,35.47
2023-05-08T13:08:32.105Z,35.52
2023-05-08T13:10:59.750Z,36.26
2023-05-08T13:13:29.538Z,36.80
2023-05-08T13:15:56.758Z,37.56
2023-05-08T13:18:30.561Z,38.10
2023-05-08T13:20:57.721Z,38.58
2023-05-08T13:23:24.787Z,37.14
2023-05-08T13:25:51.667Z,38.41
2023-05-08T13:28:18.277Z,37.97
2023-05-08T13:30:44.906Z,38.93
2023-05-08T13:33:11.714Z,38.63
2023-05-08T13:35:38.514Z,38.80
2023-05-08T13:38:06.189Z,39.05
2023-05-08T13:40:33.148Z,40.10
2023-05-08T13:42:59.984Z,38.84
2023-05-08T13:45:26.788Z,38.09
2023-05-08T13:47:54.325Z,39.74
2023-05-08T13:50:22.557Z,40.25
2023-05-08T13:52:51.662Z,40.48
2023-05-08T13:55:22.798Z,39.70
2023-05-08T13:57:49.791Z,40.24
2023-05-08T14:00:20.337Z,40.49
2023-05-08T14:02:47.771Z,39.58
2023-05-08T14:05:15.808Z,39.71
2023-05-08T14:07:43.744Z,39.82
2023-05-08T14:10:10.921Z,39.15
2023-05-08T14:12:41.151Z,39.31
2023-05-08T14:15:08.604Z,38.78
2023-05-08T14:17:35.357Z,38.43
2023-05-08T14:20:02.028Z,37.47
2023-05-08T14:22:30.011Z,39.52
2023-05-08T14:24:56.645Z,38.94
2023-05-08T14:27:23.389Z,39.61
2023-05-08T14:29:50.043Z,39.05
2023-05-08T14:32:16.710Z,40.09
2023-05-08T14:34:43.402Z,39.50
2023-05-08T14:37:10.370Z,38.97
2023-05-08T14:39:37.460Z,38.88
2023-05-08T14:44:34.109Z,38.82
2023-05-08T14:47:00.871Z,37.49
2023-05-08T14:49:36.829Z,38.63
2023-05-08T14:52:05.709Z,37.55
2023-05-08T14:54:32.862Z,39.40
2023-05-08T14:56:59.875Z,39.51
2023-05-08T14:59:26.587Z,37.61
2023-05-08T15:01:53.377Z,37.88
2023-05-08T15:04:20.788Z,37.60
2023-05-08T15:06:47.612Z,37.92
2023-05-08T15:09:16.324Z,39.19
2023-05-08T15:11:43.421Z,38.75
2023-05-08T15:14:10.155Z,40.33
2023-05-08T15:16:40.108Z,39.15
2023-05-08T15:19:07.012Z,39.32
2023-05-08T15:21:33.638Z,40.01
2023-05-08T15:24:00.324Z,39.01
2023-05-08T15:26:26.923Z,40.39
2023-05-08T15:28:53.624Z,42.03
2023-05-08T15:31:20.203Z,41.95
2023-05-08T15:33:48.051Z,43.77
2023-05-08T15:36:14.959Z,44.68
2023-05-08T15:38:41.964Z,45.41
2023-05-08T15:41:14.801Z,45.80
2023-05-08T15:43:42.284Z,44.98
2023-05-08T15:46:09.178Z,45.14
2023-05-08T15:48:36.173Z,45.52
2023-05-08T15:51:02.875Z,45.88
2023-05-08T15:53:29.632Z,45.18
2023-05-08T15:55:58.806Z,45.23
2023-05-08T15:58:25.556Z,45.68
2023-05-08T16:00:52.747Z,46.65
2023-05-08T16:03:19.597Z,46.08
2023-05-08T16:05:46.419Z,47.65
2023-05-08T16:08:14.530Z,46.33
2023-05-08T16:10:42.009Z,46.64
2023-05-08T16:13:09.504Z,46.15
2023-05-08T16:15:36.376Z,45.84
2023-05-08T16:18:03.919Z,46.50
2023-05-08T16:20:35.733Z,47.58
2023-05-08T16:23:03.021Z,47.68
2023-05-08T16:25:30.202Z,47.68
2023-05-08T16:27:57.001Z,48.49
2023-05-08T16:30:23.606Z,47.98
2023-05-08T16:32:50.493Z,48.25
2023-05-08T16:35:17.790Z,49.49
2023-05-08T16:37:44.517Z,49.51
2023-05-08T16:40:11.737Z,49.13
2023-05-08T16:42:38.543Z,49.76
2023-05-08T16:45:05.750Z,50.05
2023-05-08T16:47:33.216Z,50.18
2023-05-08T16:50:00.300Z,49.29
2023-05-08T16:52:27.136Z,49.67
2023-05-08T16:54:53.749Z,50.24
2023-05-08T16:57:20.569Z,50.36
2023-05-08T16:59:47.238Z,49.30
2023-05-08T17:02:18.723Z,49.90
2023-05-08T17:04:49.191Z,49.08
2023-05-08T17:07:16.139Z,48.26
2023-05-08T17:09:43.041Z,47.53
2023-05-08T17:12:09.765Z,44.33
2023-05-08T17:14:39.230Z,41.98
2023-05-08T17:17:06.479Z,42.77
2023-05-08T17:19:33.356Z,37.41
2023-05-08T17:22:00.280Z,38.43
2023-05-08T17:24:27.296Z,38.61
2023-05-08T17:26:54.086Z,37.35
2023-05-08T17:29:20.727Z,39.97
2023-05-08T17:31:47.505Z,39.08
2023-05-08T17:34:14.180Z,38.97
2023-05-08T17:36:41.224Z,40.68
2023-05-08T17:39:08.042Z,40.30
2023-05-08T17:41:34.833Z,42.27
2023-05-08T17:44:01.444Z,43.12
2023-05-08T17:46:28.089Z,43.51
2023-05-08T17:48:54.653Z,44.06
2023-05-08T17:51:21.302Z,44.43
2023-05-08T17:53:47.992Z,44.75
2023-05-08T17:56:16.330Z,46.18
2023-05-08T17:58:43.548Z,47.43
2023-05-08T18:01:10.278Z,47.36
2023-05-08T18:03:37.095Z,47.93
2023-05-08T18:06:03.882Z,47.62
2023-05-08T18:08:30.569Z,47.39
2023-05-08T18:10:57.160Z,48.38
2023-05-08T18:13:23.891Z,48.45
2023-05-08T18:15:50.854Z,48.12
2023-05-08T18:18:17.461Z,47.71
2023-05-08T18:20:44.081Z,48.58
2023-05-08T18:23:10.849Z,48.39
2023-05-08T18:25:37.520Z,47.26
2023-05-08T18:28:04.425Z,47.68
2023-05-08T18:30:31.646Z,47.59
2023-05-08T18:32:58.335Z,47.25
2023-05-08T18:35:24.971Z,47.71
2023-05-08T18:37:51.701Z,47.74
2023-05-08T18:40:18.447Z,47.70
2023-05-08T18:42:45.164Z,48.15
2023-05-08T18:45:12.192Z,48.53
2023-05-08T18:47:39.051Z,48.90
2023-05-08T18:50:06.310Z,47.95
2023-05-08T18:52:32.923Z,48.36
2023-05-08T18:54:59.767Z,48.88
2023-05-08T18:57:26.500Z,48.80
2023-05-08T18:59:53.223Z,49.08
2023-05-08T19:02:20.150Z,49.04
2023-05-08T19:04:46.874Z,50.04
2023-05-08T19:07:13.596Z,49.29
2023-05-08T19:09:40.265Z,50.30
2023-05-08T19:12:07.006Z,50.02
2023-05-08T19:14:33.724Z,50.45
2023-05-08T19:17:03.521Z,49.98
2023-05-08T19:19:30.760Z,50.08
2023-05-08T19:21:57.597Z,50.06
2023-05-08T19:24:26.385Z,50.14
2023-05-08T19:26:53.087Z,50.94
2023-05-08T19:29:19.714Z,50.40
2023-05-08T19:31:46.574Z,50.32
2023-05-08T19:34:13.309Z,50.79
2023-05-08T19:36:39.937Z,50.23
2023-05-08T19:39:06.710Z,50.81
2023-05-08T19:41:33.520Z,50.56
2023-05-08T19:44:00.351Z,51.00
2023-05-08T19:46:27.123Z,50.69
2023-05-08T19:48:53.746Z,51.18
2023-05-08T19:51:20.781Z,51.19
2023-05-08T19:53:47.455Z,51.02
2023-05-08T19:56:14.130Z,51.99
2023-05-08T19:58:40.829Z,51.55
2023-05-08T20:01:07.590Z,52.03
2023-05-08T20:03:34.455Z,51.75
2023-05-08T20:06:01.217Z,51.81
2023-05-08T20:08:27.849Z,52.16
2023-05-08T20:10:54.658Z,51.99
2023-05-08T20:13:21.656Z,52.11
2023-05-08T20:15:48.486Z,52.48
2023-05-08T20:18:15.209Z,52.58
2023-05-08T20:20:42.016Z,53.10
2023-05-08T20:23:08.623Z,52.78
2023-05-08T20:25:35.630Z,52.64
2023-05-08T20:28:02.263Z,53.36
2023-05-08T20:30:29.068Z,53.13
2023-05-08T20:32:56.500Z,53.34
2023-05-08T20:35:23.217Z,53.41
2023-05-08T20:37:49.884Z,53.30
2023-05-08T20:40:16.836Z,53.68
2023-05-08T20:42:43.582Z,54.30
2023-05-08T20:45:11.001Z,53.87
2023-05-08T20:47:37.879Z,53.97
2023-05-08T20:50:05.057Z,53.89
2023-05-08T20:52:32.373Z,54.04
2023-05-08T20:54:59.515Z,54.04
2023-05-08T20:57:26.349Z,54.20
2023-05-08T20:59:53.037Z,54.15
2023-05-08T21:02:19.761Z,54.58
2023-05-08T21:04:46.512Z,54.22
2023-05-08T21:07:13.271Z,54.78
2023-05-08T21:09:39.989Z,54.55
2023-05-08T21:12:07.224Z,54.82
2023-05-08T21:14:35.313Z,54.98
2023-05-08T21:17:02.067Z,55.30
2023-05-08T21:19:31.057Z,55.43
2023-05-08T21:21:57.714Z,55.23
2023-05-08T21:24:25.779Z,56.29
2023-05-08T21:26:53.318Z,56.73
2023-05-08T21:29:20.186Z,56.90
2023-05-08T21:31:46.981Z,56.55
2023-05-08T21:34:14.882Z,56.62
2023-05-08T21:36:41.565Z,56.91
2023-05-08T21:39:08.883Z,56.31
2023-05-08T21:41:35.523Z,56.29
2023-05-08T21:44:02.144Z,56.09
2023-05-08T21:46:28.814Z,56.30
2023-05-08T21:48:55.672Z,56.55
2023-05-08T21:51:22.381Z,56.82
2023-05-08T21:53:49.221Z,57.35
2023-05-08T21:56:16.557Z,57.36
2023-05-08T21:58:43.196Z,57.83
2023-05-08T22:01:09.893Z,57.18
2023-05-08T22:03:36.782Z,56.83
2023-05-08T22:06:03.722Z,56.81
2023-05-08T22:08:30.468Z,56.90
2023-05-08T22:10:57.211Z,57.34
2023-05-08T22:13:23.953Z,56.87
2023-05-08T22:15:50.778Z,56.66
2023-05-08T22:18:18.102Z,56.59
2023-05-08T22:20:44.720Z,56.75
2023-05-08T22:23:11.401Z,57.37
2023-05-08T22:25:38.149Z,57.12
2023-05-08T22:28:09.818Z,57.01
2023-05-08T22:30:36.477Z,57.39
2023-05-08T22:33:03.210Z,57.09
2023-05-08T22:37:58.122Z,56.55
2023-05-08T22:40:25.584Z,57.20
2023-05-08T22:42:53.521Z,56.57
2023-05-08T22:45:20.957Z,56.67
2023-05-08T22:47:47.755Z,56.75
2023-05-08T22:50:14.638Z,56.96
2023-05-08T22:52:41.321Z,56.97
2023-05-08T22:55:08.543Z,57.11
2023-05-08T22:57:35.286Z,57.21
2023-05-08T23:00:02.254Z,57.53
2023-05-08T23:02:33.417Z,57.62
2023-05-08T23:05:00.686Z,56.99
2023-05-08T23:07:28.383Z,56.81
2023-05-08T23:09:55.148Z,56.74
2023-05-08T23:12:21.907Z,56.72
2023-05-08T23:14:48.584Z,56.60
2023-05-08T23:17:15.452Z,57.04
2023-05-08T23:19:42.732Z,57.29
2023-05-08T23:22:09.975Z,57.28
2023-05-08T23:24:36.781Z,57.84
2023-05-08T23:27:03.544Z,57.85
2023-05-08T23:29:30.262Z,57.50
2023-05-08T23:31:56.944Z,57.95
2023-05-08T23:34:23.657Z,57.58
2023-05-08T23:36:50.186Z,57.85
2023-05-08T23:39:16.830Z,57.83
2023-05-08T23:41:43.414Z,58.69
2023-05-08T23:44:10.398Z,58.94
2023-05-08T23:46:37.025Z,59.77
2023-05-08T23:49:05.472Z,59.56
2023-05-08T23:51:32.482Z,59.58
2023-05-08T23:53:59.179Z,59.82
2023-05-08T23:56:26.905Z,59.97
2023-05-08T23:58:53.679Z,59.47
